sensor_id;sensor_type;location;lat;lon;timestamp;temperature;humidity
15578;DHT22;17667;45.598;5.214;2023-06-22T00:00:52;23.00;90.70
15578;DHT22;17667;45.598;5.214;2023-06-22T00:03:40;23.10;90.30
15578;DHT22;17667;45.598;5.214;2023-06-22T00:06:27;23.10;90.70
15578;DHT22;17667;45.598;5.214;2023-06-22T00:09:16;23.30;90.60
15578;DHT22;17667;45.598;5.214;2023-06-22T00:12:05;23.20;90.00
15578;DHT22;17667;45.598;5.214;2023-06-22T00:14:53;23.20;90.00
15578;DHT22;17667;45.598;5.214;2023-06-22T00:17:40;23.00;89.60
15578;DHT22;17667;45.598;5.214;2023-06-22T00:20:28;23.00;89.20
15578;DHT22;17667;45.598;5.214;2023-06-22T00:23:16;22.90;88.70
15578;DHT22;17667;45.598;5.214;2023-06-22T00:26:06;22.80;90.00
15578;DHT22;17667;45.598;5.214;2023-06-22T00:28:53;22.70;89.40
15578;DHT22;17667;45.598;5.214;2023-06-22T00:31:42;22.70;91.20
15578;DHT22;17667;45.598;5.214;2023-06-22T00:34:29;22.60;90.30
15578;DHT22;17667;45.598;5.214;2023-06-22T00:37:18;22.60;90.10
15578;DHT22;17667;45.598;5.214;2023-06-22T00:40:09;22.50;90.60
15578;DHT22;17667;45.598;5.214;2023-06-22T00:42:59;22.50;91.70
15578;DHT22;17667;45.598;5.214;2023-06-22T00:45:50;22.50;91.40
15578;DHT22;17667;45.598;5.214;2023-06-22T00:48:37;22.50;90.60
15578;DHT22;17667;45.598;5.214;2023-06-22T00:51:26;22.50;90.80
15578;DHT22;17667;45.598;5.214;2023-06-22T00:54:14;22.50;90.60
15578;DHT22;17667;45.598;5.214;2023-06-22T00:57:01;22.40;90.90
15578;DHT22;17667;45.598;5.214;2023-06-22T00:59:51;22.40;90.60
15578;DHT22;17667;45.598;5.214;2023-06-22T01:02:39;22.30;90.60
15578;DHT22;17667;45.598;5.214;2023-06-22T01:05:27;22.30;90.70
15578;DHT22;17667;45.598;5.214;2023-06-22T01:08:23;22.20;91.10
15578;DHT22;17667;45.598;5.214;2023-06-22T01:11:19;22.20;90.90
15578;DHT22;17667;45.598;5.214;2023-06-22T01:14:12;22.20;91.10
15578;DHT22;17667;45.598;5.214;2023-06-22T01:17:03;22.20;92.00
15578;DHT22;17667;45.598;5.214;2023-06-22T01:19:55;22.10;91.00
15578;DHT22;17667;45.598;5.214;2023-06-22T01:22:57;22.10;91.10
15578;DHT22;17667;45.598;5.214;2023-06-22T01:25:53;22.10;91.50
15578;DHT22;17667;45.598;5.214;2023-06-22T01:28:45;22.10;91.50
15578;DHT22;17667;45.598;5.214;2023-06-22T01:31:34;22.10;91.80
15578;DHT22;17667;45.598;5.214;2023-06-22T01:34:23;22.10;91.80
15578;DHT22;17667;45.598;5.214;2023-06-22T01:37:11;22.10;92.20
15578;DHT22;17667;45.598;5.214;2023-06-22T01:39:59;22.10;92.00
15578;DHT22;17667;45.598;5.214;2023-06-22T01:42:48;22.10;92.10
15578;DHT22;17667;45.598;5.214;2023-06-22T01:45:38;22.10;92.00
15578;DHT22;17667;45.598;5.214;2023-06-22T01:48:26;22.10;92.00
15578;DHT22;17667;45.598;5.214;2023-06-22T01:51:15;22.10;92.30
15578;DHT22;17667;45.598;5.214;2023-06-22T01:54:03;22.10;92.50
15578;DHT22;17667;45.598;5.214;2023-06-22T01:56:50;22.10;92.00
15578;DHT22;17667;45.598;5.214;2023-06-22T01:59:46;22.10;92.60
15578;DHT22;17667;45.598;5.214;2023-06-22T02:02:40;22.10;92.20
15578;DHT22;17667;45.598;5.214;2023-06-22T02:05:34;22.10;91.80
15578;DHT22;17667;45.598;5.214;2023-06-22T02:08:25;22.00;91.80
15578;DHT22;17667;45.598;5.214;2023-06-22T02:11:15;22.10;91.70
15578;DHT22;17667;45.598;5.214;2023-06-22T02:14:05;21.90;92.20
15578;DHT22;17667;45.598;5.214;2023-06-22T02:16:53;21.80;91.90
15578;DHT22;17667;45.598;5.214;2023-06-22T02:19:42;21.80;92.40
15578;DHT22;17667;45.598;5.214;2023-06-22T02:22:30;21.70;92.90
15578;DHT22;17667;45.598;5.214;2023-06-22T02:25:18;21.70;93.50
15578;DHT22;17667;45.598;5.214;2023-06-22T02:28:06;21.70;93.80
15578;DHT22;17667;45.598;5.214;2023-06-22T02:30:54;21.60;92.90
15578;DHT22;17667;45.598;5.214;2023-06-22T02:33:41;21.50;93.20
15578;DHT22;17667;45.598;5.214;2023-06-22T02:36:32;21.50;93.40
15578;DHT22;17667;45.598;5.214;2023-06-22T02:39:20;21.50;92.80
15578;DHT22;17667;45.598;5.214;2023-06-22T02:42:09;21.40;93.30
15578;DHT22;17667;45.598;5.214;2023-06-22T02:44:57;21.40;93.40
15578;DHT22;17667;45.598;5.214;2023-06-22T02:47:45;21.40;93.60
15578;DHT22;17667;45.598;5.214;2023-06-22T02:50:34;21.40;93.50
15578;DHT22;17667;45.598;5.214;2023-06-22T02:53:24;21.50;94.00
15578;DHT22;17667;45.598;5.214;2023-06-22T02:56:12;21.60;94.20
15578;DHT22;17667;45.598;5.214;2023-06-22T02:59:00;21.60;93.60
15578;DHT22;17667;45.598;5.214;2023-06-22T03:01:53;21.60;93.80
15578;DHT22;17667;45.598;5.214;2023-06-22T03:04:45;21.60;93.70
15578;DHT22;17667;45.598;5.214;2023-06-22T03:07:36;21.60;94.10
15578;DHT22;17667;45.598;5.214;2023-06-22T03:10:25;21.60;93.90
15578;DHT22;17667;45.598;5.214;2023-06-22T03:13:13;21.60;94.00
15578;DHT22;17667;45.598;5.214;2023-06-22T03:16:01;21.50;94.60
15578;DHT22;17667;45.598;5.214;2023-06-22T03:18:52;21.50;94.50
15578;DHT22;17667;45.598;5.214;2023-06-22T03:21:40;21.50;94.90
15578;DHT22;17667;45.598;5.214;2023-06-22T03:24:28;21.50;94.60
15578;DHT22;17667;45.598;5.214;2023-06-22T03:27:18;21.50;95.00
15578;DHT22;17667;45.598;5.214;2023-06-22T03:30:08;21.50;94.40
15578;DHT22;17667;45.598;5.214;2023-06-22T03:32:56;21.50;94.40
15578;DHT22;17667;45.598;5.214;2023-06-22T03:35:45;21.60;94.50
15578;DHT22;17667;45.598;5.214;2023-06-22T03:38:33;21.60;94.80
15578;DHT22;17667;45.598;5.214;2023-06-22T03:41:21;21.60;94.80
15578;DHT22;17667;45.598;5.214;2023-06-22T03:44:10;21.60;95.10
15578;DHT22;17667;45.598;5.214;2023-06-22T03:46:58;21.70;94.80
15578;DHT22;17667;45.598;5.214;2023-06-22T03:49:48;21.70;94.80
15578;DHT22;17667;45.598;5.214;2023-06-22T03:52:36;21.80;94.30
15578;DHT22;17667;45.598;5.214;2023-06-22T03:55:24;21.80;95.80
15578;DHT22;17667;45.598;5.214;2023-06-22T03:58:11;21.90;94.90
15578;DHT22;17667;45.598;5.214;2023-06-22T04:01:00;21.90;95.00
15578;DHT22;17667;45.598;5.214;2023-06-22T04:03:48;22.00;94.60
15578;DHT22;17667;45.598;5.214;2023-06-22T04:06:36;22.00;94.60
15578;DHT22;17667;45.598;5.214;2023-06-22T04:09:24;22.00;94.60
15578;DHT22;17667;45.598;5.214;2023-06-22T04:12:12;22.00;95.30
15578;DHT22;17667;45.598;5.214;2023-06-22T04:14:59;22.10;94.70
15578;DHT22;17667;45.598;5.214;2023-06-22T04:17:49;22.10;94.40
15578;DHT22;17667;45.598;5.214;2023-06-22T04:20:36;22.10;94.90
15578;DHT22;17667;45.598;5.214;2023-06-22T04:23:24;22.10;94.40
15578;DHT22;17667;45.598;5.214;2023-06-22T04:26:12;22.00;94.30
15578;DHT22;17667;45.598;5.214;2023-06-22T04:29:00;22.10;94.50
15578;DHT22;17667;45.598;5.214;2023-06-22T04:31:51;22.10;94.20
15578;DHT22;17667;45.598;5.214;2023-06-22T04:34:40;22.10;94.40
15578;DHT22;17667;45.598;5.214;2023-06-22T04:37:28;22.10;94.60
15578;DHT22;17667;45.598;5.214;2023-06-22T04:40:15;22.00;94.60
15578;DHT22;17667;45.598;5.214;2023-06-22T04:43:03;22.00;95.20
15578;DHT22;17667;45.598;5.214;2023-06-22T04:45:52;22.00;95.10
15578;DHT22;17667;45.598;5.214;2023-06-22T04:48:40;22.00;95.60
15578;DHT22;17667;45.598;5.214;2023-06-22T04:51:29;22.10;95.70
15578;DHT22;17667;45.598;5.214;2023-06-22T04:54:17;22.00;96.30
15578;DHT22;17667;45.598;5.214;2023-06-22T04:57:06;22.00;96.60
15578;DHT22;17667;45.598;5.214;2023-06-22T04:59:56;22.10;96.60
15578;DHT22;17667;45.598;5.214;2023-06-22T05:02:44;22.10;96.40
15578;DHT22;17667;45.598;5.214;2023-06-22T05:05:32;22.10;96.40
15578;DHT22;17667;45.598;5.214;2023-06-22T05:08:21;21.90;96.20
15578;DHT22;17667;45.598;5.214;2023-06-22T05:11:13;22.20;95.90
15578;DHT22;17667;45.598;5.214;2023-06-22T05:14:00;22.20;96.30
15578;DHT22;17667;45.598;5.214;2023-06-22T05:16:48;22.30;96.20
15578;DHT22;17667;45.598;5.214;2023-06-22T05:19:38;22.30;95.60
15578;DHT22;17667;45.598;5.214;2023-06-22T05:22:26;22.30;95.90
15578;DHT22;17667;45.598;5.214;2023-06-22T05:25:15;22.40;95.40
15578;DHT22;17667;45.598;5.214;2023-06-22T05:28:02;22.40;95.60
15578;DHT22;17667;45.598;5.214;2023-06-22T05:30:57;22.50;95.10
15578;DHT22;17667;45.598;5.214;2023-06-22T05:33:45;22.50;95.10
15578;DHT22;17667;45.598;5.214;2023-06-22T05:36:33;22.60;95.00
15578;DHT22;17667;45.598;5.214;2023-06-22T05:39:21;22.60;95.10
15578;DHT22;17667;45.598;5.214;2023-06-22T05:42:10;22.60;95.10
15578;DHT22;17667;45.598;5.214;2023-06-22T05:44:57;22.60;95.20
15578;DHT22;17667;45.598;5.214;2023-06-22T05:47:45;22.70;95.30
15578;DHT22;17667;45.598;5.214;2023-06-22T05:50:33;22.70;94.90
15578;DHT22;17667;45.598;5.214;2023-06-22T05:53:21;22.70;95.20
15578;DHT22;17667;45.598;5.214;2023-06-22T05:56:08;22.70;94.90
15578;DHT22;17667;45.598;5.214;2023-06-22T05:58:58;22.60;95.00
15578;DHT22;17667;45.598;5.214;2023-06-22T06:01:45;22.60;95.50
15578;DHT22;17667;45.598;5.214;2023-06-22T06:04:36;22.60;95.50
15578;DHT22;17667;45.598;5.214;2023-06-22T06:07:24;22.60;95.60
15578;DHT22;17667;45.598;5.214;2023-06-22T06:10:12;22.60;95.80
15578;DHT22;17667;45.598;5.214;2023-06-22T06:13:00;22.70;95.50
15578;DHT22;17667;45.598;5.214;2023-06-22T06:15:52;22.80;95.30
15578;DHT22;17667;45.598;5.214;2023-06-22T06:18:41;23.00;95.50
15578;DHT22;17667;45.598;5.214;2023-06-22T06:21:29;23.20;94.80
15578;DHT22;17667;45.598;5.214;2023-06-22T06:24:16;23.30;94.60
15578;DHT22;17667;45.598;5.214;2023-06-22T06:27:04;23.30;94.10
15578;DHT22;17667;45.598;5.214;2023-06-22T06:29:52;23.40;94.00
15578;DHT22;17667;45.598;5.214;2023-06-22T06:32:42;23.50;94.10
15578;DHT22;17667;45.598;5.214;2023-06-22T06:35:31;23.50;93.50
15578;DHT22;17667;45.598;5.214;2023-06-22T06:38:19;23.50;93.20
15578;DHT22;17667;45.598;5.214;2023-06-22T06:41:07;23.50;93.50
15578;DHT22;17667;45.598;5.214;2023-06-22T06:43:55;23.70;93.50
15578;DHT22;17667;45.598;5.214;2023-06-22T06:46:43;23.70;93.40
15578;DHT22;17667;45.598;5.214;2023-06-22T06:49:33;23.70;93.20
15578;DHT22;17667;45.598;5.214;2023-06-22T06:52:21;23.70;93.20
15578;DHT22;17667;45.598;5.214;2023-06-22T06:55:09;23.70;93.70
15578;DHT22;17667;45.598;5.214;2023-06-22T06:57:58;23.60;93.30
15578;DHT22;17667;45.598;5.214;2023-06-22T07:03:41;23.60;93.60
15578;DHT22;17667;45.598;5.214;2023-06-22T07:08:29;23.60;94.10
15578;DHT22;17667;45.598;5.214;2023-06-22T07:11:19;23.50;94.40
15578;DHT22;17667;45.598;5.214;2023-06-22T07:14:09;23.50;93.90
15578;DHT22;17667;45.598;5.214;2023-06-22T07:16:59;23.40;93.70
15578;DHT22;17667;45.598;5.214;2023-06-22T07:19:48;23.30;93.50
15578;DHT22;17667;45.598;5.214;2023-06-22T07:22:39;23.30;93.90
15578;DHT22;17667;45.598;5.214;2023-06-22T07:25:32;23.30;94.00
15578;DHT22;17667;45.598;5.214;2023-06-22T07:28:22;23.40;93.70
15578;DHT22;17667;45.598;5.214;2023-06-22T07:31:12;23.30;94.10
15578;DHT22;17667;45.598;5.214;2023-06-22T07:34:02;23.30;94.10
15578;DHT22;17667;45.598;5.214;2023-06-22T07:36:51;23.30;94.00
15578;DHT22;17667;45.598;5.214;2023-06-22T07:39:41;23.30;94.40
15578;DHT22;17667;45.598;5.214;2023-06-22T07:42:36;23.30;93.40
15578;DHT22;17667;45.598;5.214;2023-06-22T07:45:26;23.30;93.50
15578;DHT22;17667;45.598;5.214;2023-06-22T07:48:16;23.30;94.00
15578;DHT22;17667;45.598;5.214;2023-06-22T07:51:06;23.30;94.10
15578;DHT22;17667;45.598;5.214;2023-06-22T07:53:56;23.30;95.30
15578;DHT22;17667;45.598;5.214;2023-06-22T07:56:46;23.40;92.70
15578;DHT22;17667;45.598;5.214;2023-06-22T07:59:39;23.40;91.30
15578;DHT22;17667;45.598;5.214;2023-06-22T08:02:29;23.50;92.80
15578;DHT22;17667;45.598;5.214;2023-06-22T08:05:19;23.60;92.30
15578;DHT22;17667;45.598;5.214;2023-06-22T08:08:09;23.70;92.50
15578;DHT22;17667;45.598;5.214;2023-06-22T08:10:58;23.90;92.20
15578;DHT22;17667;45.598;5.214;2023-06-22T08:13:48;24.00;92.80
15578;DHT22;17667;45.598;5.214;2023-06-22T08:16:41;24.10;92.80
15578;DHT22;17667;45.598;5.214;2023-06-22T08:19:31;24.00;92.60
15578;DHT22;17667;45.598;5.214;2023-06-22T08:22:21;24.00;92.40
15578;DHT22;17667;45.598;5.214;2023-06-22T08:25:11;24.00;92.30
15578;DHT22;17667;45.598;5.214;2023-06-22T08:28:03;24.00;92.50
15578;DHT22;17667;45.598;5.214;2023-06-22T08:30:54;24.00;92.50
15578;DHT22;17667;45.598;5.214;2023-06-22T08:33:46;24.10;92.90
15578;DHT22;17667;45.598;5.214;2023-06-22T08:36:36;24.30;92.70
15578;DHT22;17667;45.598;5.214;2023-06-22T08:39:28;24.70;92.40
15578;DHT22;17667;45.598;5.214;2023-06-22T08:42:19;25.10;91.30
15578;DHT22;17667;45.598;5.214;2023-06-22T08:45:12;25.20;91.10
15578;DHT22;17667;45.598;5.214;2023-06-22T08:48:02;25.20;91.40
15578;DHT22;17667;45.598;5.214;2023-06-22T08:50:54;25.10;91.40
15578;DHT22;17667;45.598;5.214;2023-06-22T08:53:44;25.00;91.60
15578;DHT22;17667;45.598;5.214;2023-06-22T08:56:34;24.90;91.90
15578;DHT22;17667;45.598;5.214;2023-06-22T08:59:24;24.80;91.60
15578;DHT22;17667;45.598;5.214;2023-06-22T09:02:14;24.70;92.00
15578;DHT22;17667;45.598;5.214;2023-06-22T09:05:04;24.60;92.40
15578;DHT22;17667;45.598;5.214;2023-06-22T09:07:57;24.60;92.70
15578;DHT22;17667;45.598;5.214;2023-06-22T09:10:48;24.50;92.80
15578;DHT22;17667;45.598;5.214;2023-06-22T09:13:37;24.60;92.80
15578;DHT22;17667;45.598;5.214;2023-06-22T09:16:27;24.80;93.10
15578;DHT22;17667;45.598;5.214;2023-06-22T09:19:17;25.10;93.60
15578;DHT22;17667;45.598;5.214;2023-06-22T09:22:07;25.40;93.10
15578;DHT22;17667;45.598;5.214;2023-06-22T09:25:00;26.10;92.10
15578;DHT22;17667;45.598;5.214;2023-06-22T09:27:51;26.60;91.40
15578;DHT22;17667;45.598;5.214;2023-06-22T09:30:43;27.10;87.00
15578;DHT22;17667;45.598;5.214;2023-06-22T09:33:33;27.20;86.10
15578;DHT22;17667;45.598;5.214;2023-06-22T09:36:24;27.00;87.40
15578;DHT22;17667;45.598;5.214;2023-06-22T09:39:14;26.80;87.60
15578;DHT22;17667;45.598;5.214;2023-06-22T09:42:07;26.60;87.20
15578;DHT22;17667;45.598;5.214;2023-06-22T09:44:58;26.50;87.80
15578;DHT22;17667;45.598;5.214;2023-06-22T09:47:48;26.90;89.00
15578;DHT22;17667;45.598;5.214;2023-06-22T09:50:38;27.80;83.90
15578;DHT22;17667;45.598;5.214;2023-06-22T09:53:28;28.50;84.00
15578;DHT22;17667;45.598;5.214;2023-06-22T09:56:18;28.80;79.40
15578;DHT22;17667;45.598;5.214;2023-06-22T09:59:10;28.80;80.20
15578;DHT22;17667;45.598;5.214;2023-06-22T10:02:04;28.50;78.80
15578;DHT22;17667;45.598;5.214;2023-06-22T10:04:54;28.10;81.20
15578;DHT22;17667;45.598;5.214;2023-06-22T10:07:44;27.80;81.70
15578;DHT22;17667;45.598;5.214;2023-06-22T10:10:34;27.60;80.60
15578;DHT22;17667;45.598;5.214;2023-06-22T10:13:24;27.50;79.80
15578;DHT22;17667;45.598;5.214;2023-06-22T10:16:16;27.40;79.80
15578;DHT22;17667;45.598;5.214;2023-06-22T10:19:06;27.30;78.20
15578;DHT22;17667;45.598;5.214;2023-06-22T10:21:56;27.20;78.90
15578;DHT22;17667;45.598;5.214;2023-06-22T10:24:46;27.10;79.00
15578;DHT22;17667;45.598;5.214;2023-06-22T10:27:36;27.20;80.30
15578;DHT22;17667;45.598;5.214;2023-06-22T10:30:27;27.20;79.50
15578;DHT22;17667;45.598;5.214;2023-06-22T10:33:20;27.20;80.60
15578;DHT22;17667;45.598;5.214;2023-06-22T10:36:10;27.10;78.30
15578;DHT22;17667;45.598;5.214;2023-06-22T10:39:00;27.00;80.20
15578;DHT22;17667;45.598;5.214;2023-06-22T10:41:50;26.90;82.10
15578;DHT22;17667;45.598;5.214;2023-06-22T10:44:40;27.10;82.10
15578;DHT22;17667;45.598;5.214;2023-06-22T10:47:31;27.20;81.20
15578;DHT22;17667;45.598;5.214;2023-06-22T10:50:24;27.00;80.00
15578;DHT22;17667;45.598;5.214;2023-06-22T10:53:14;27.00;76.20
15578;DHT22;17667;45.598;5.214;2023-06-22T10:56:04;27.10;75.20
15578;DHT22;17667;45.598;5.214;2023-06-22T10:58:54;27.50;76.90
15578;DHT22;17667;45.598;5.214;2023-06-22T11:01:44;29.00;78.60
15578;DHT22;17667;45.598;5.214;2023-06-22T11:07:26;32.70;68.90
15578;DHT22;17667;45.598;5.214;2023-06-22T11:10:17;34.40;61.90
15578;DHT22;17667;45.598;5.214;2023-06-22T11:13:07;34.20;60.70
15578;DHT22;17667;45.598;5.214;2023-06-22T11:15:56;33.40;66.60
15578;DHT22;17667;45.598;5.214;2023-06-22T11:18:46;32.80;60.00
15578;DHT22;17667;45.598;5.214;2023-06-22T11:21:36;32.30;61.90
15578;DHT22;17667;45.598;5.214;2023-06-22T11:24:29;31.90;62.80
15578;DHT22;17667;45.598;5.214;2023-06-22T11:27:19;31.60;64.40
15578;DHT22;17667;45.598;5.214;2023-06-22T11:30:09;31.60;64.30
15578;DHT22;17667;45.598;5.214;2023-06-22T11:33:00;31.70;63.60
15578;DHT22;17667;45.598;5.214;2023-06-22T11:35:50;32.50;63.00
15578;DHT22;17667;45.598;5.214;2023-06-22T11:38:39;32.50;59.20
15578;DHT22;17667;45.598;5.214;2023-06-22T11:41:32;32.60;60.00
15578;DHT22;17667;45.598;5.214;2023-06-22T11:44:22;33.10;57.80
15578;DHT22;17667;45.598;5.214;2023-06-22T11:47:11;34.20;59.90
15578;DHT22;17667;45.598;5.214;2023-06-22T11:50:01;35.70;66.30
15578;DHT22;17667;45.598;5.214;2023-06-22T11:52:52;34.50;52.00
15578;DHT22;17667;45.598;5.214;2023-06-22T11:55:42;34.30;53.20
15578;DHT22;17667;45.598;5.214;2023-06-22T11:58:34;34.00;53.80
15578;DHT22;17667;45.598;5.214;2023-06-22T12:01:24;35.20;53.90
15578;DHT22;17667;45.598;5.214;2023-06-22T12:04:14;34.90;50.00
15578;DHT22;17667;45.598;5.214;2023-06-22T12:07:04;35.00;48.70
15578;DHT22;17667;45.598;5.214;2023-06-22T12:09:54;35.30;49.60
15578;DHT22;17667;45.598;5.214;2023-06-22T12:12:44;37.20;51.40
15578;DHT22;17667;45.598;5.214;2023-06-22T12:15:37;39.10;51.80
15578;DHT22;17667;45.598;5.214;2023-06-22T12:18:27;39.00;47.20
15578;DHT22;17667;45.598;5.214;2023-06-22T12:21:17;39.20;47.10
15578;DHT22;17667;45.598;5.214;2023-06-22T12:24:07;38.90;47.00
15578;DHT22;17667;45.598;5.214;2023-06-22T12:26:57;39.50;49.30
15578;DHT22;17667;45.598;5.214;2023-06-22T12:29:46;38.80;51.90
15578;DHT22;17667;45.598;5.214;2023-06-22T12:32:39;37.70;45.80
15578;DHT22;17667;45.598;5.214;2023-06-22T12:35:29;36.80;46.80
15578;DHT22;17667;45.598;5.214;2023-06-22T12:38:19;36.30;49.70
15578;DHT22;17667;45.598;5.214;2023-06-22T12:41:11;35.80;48.60
15578;DHT22;17667;45.598;5.214;2023-06-22T12:44:02;35.20;49.50
15578;DHT22;17667;45.598;5.214;2023-06-22T12:46:52;34.30;50.60
15578;DHT22;17667;45.598;5.214;2023-06-22T12:49:45;33.80;50.00
15578;DHT22;17667;45.598;5.214;2023-06-22T12:52:36;33.60;52.10
15578;DHT22;17667;45.598;5.214;2023-06-22T12:55:28;33.20;49.10
15578;DHT22;17667;45.598;5.214;2023-06-22T12:58:17;33.20;49.80
15578;DHT22;17667;45.598;5.214;2023-06-22T13:01:07;34.00;50.50
15578;DHT22;17667;45.598;5.214;2023-06-22T13:03:58;34.40;50.30
15578;DHT22;17667;45.598;5.214;2023-06-22T13:06:50;34.70;50.10
15578;DHT22;17667;45.598;5.214;2023-06-22T13:09:40;34.40;49.80
15578;DHT22;17667;45.598;5.214;2023-06-22T13:12:32;33.60;49.70
15578;DHT22;17667;45.598;5.214;2023-06-22T13:15:21;33.30;50.80
15578;DHT22;17667;45.598;5.214;2023-06-22T13:18:11;33.10;51.30
15578;DHT22;17667;45.598;5.214;2023-06-22T13:21:01;33.30;51.40
15578;DHT22;17667;45.598;5.214;2023-06-22T13:23:54;33.50;52.30
15578;DHT22;17667;45.598;5.214;2023-06-22T13:26:44;33.90;51.30
15578;DHT22;17667;45.598;5.214;2023-06-22T13:29:34;33.10;52.30
15578;DHT22;17667;45.598;5.214;2023-06-22T13:32:24;32.30;53.20
15578;DHT22;17667;45.598;5.214;2023-06-22T13:35:14;31.50;54.40
15578;DHT22;17667;45.598;5.214;2023-06-22T13:38:04;30.80;55.60
15578;DHT22;17667;45.598;5.214;2023-06-22T13:40:56;30.30;57.00
15578;DHT22;17667;45.598;5.214;2023-06-22T13:43:46;29.90;58.40
15578;DHT22;17667;45.598;5.214;2023-06-22T13:46:36;29.50;59.20
15578;DHT22;17667;45.598;5.214;2023-06-22T13:49:26;29.30;59.80
15578;DHT22;17667;45.598;5.214;2023-06-22T13:52:16;27.90;57.00
15578;DHT22;17667;45.598;5.214;2023-06-22T13:55:06;28.50;58.80
15578;DHT22;17667;45.598;5.214;2023-06-22T13:57:59;27.90;57.60
15578;DHT22;17667;45.598;5.214;2023-06-22T14:00:49;27.30;57.20
15578;DHT22;17667;45.598;5.214;2023-06-22T14:03:42;26.30;57.80
15578;DHT22;17667;45.598;5.214;2023-06-22T14:06:33;25.70;59.50
15578;DHT22;17667;45.598;5.214;2023-06-22T14:09:23;24.50;74.10
15578;DHT22;17667;45.598;5.214;2023-06-22T14:12:13;23.30;81.70
15578;DHT22;17667;45.598;5.214;2023-06-22T14:15:07;22.00;92.20
15578;DHT22;17667;45.598;5.214;2023-06-22T14:17:57;20.60;99.90
15578;DHT22;17667;45.598;5.214;2023-06-22T14:20:48;19.90;99.90
15578;DHT22;17667;45.598;5.214;2023-06-22T14:23:38;19.60;99.90
15578;DHT22;17667;45.598;5.214;2023-06-22T14:26:27;19.50;99.90
15578;DHT22;17667;45.598;5.214;2023-06-22T14:29:17;19.10;99.90
15578;DHT22;17667;45.598;5.214;2023-06-22T14:32:10;18.90;99.90
15578;DHT22;17667;45.598;5.214;2023-06-22T14:35:00;18.70;99.90
15578;DHT22;17667;45.598;5.214;2023-06-22T14:37:50;18.50;99.90
15578;DHT22;17667;45.598;5.214;2023-06-22T14:40:40;18.20;99.90
15578;DHT22;17667;45.598;5.214;2023-06-22T14:43:43;18.20;99.90
15578;DHT22;17667;45.598;5.214;2023-06-22T14:46:35;18.30;99.90
15578;DHT22;17667;45.598;5.214;2023-06-22T14:49:27;18.30;99.90
15578;DHT22;17667;45.598;5.214;2023-06-22T14:52:17;18.40;99.90
15578;DHT22;17667;45.598;5.214;2023-06-22T14:55:08;18.50;99.90
15578;DHT22;17667;45.598;5.214;2023-06-22T14:57:58;18.50;99.90
15578;DHT22;17667;45.598;5.214;2023-06-22T15:00:48;18.40;99.90
15578;DHT22;17667;45.598;5.214;2023-06-22T15:03:38;19.50;99.90
15578;DHT22;17667;45.598;5.214;2023-06-22T15:06:30;18.60;99.90
15578;DHT22;17667;45.598;5.214;2023-06-22T15:09:20;18.60;99.90
15578;DHT22;17667;45.598;5.214;2023-06-22T15:12:10;19.00;99.90
15578;DHT22;17667;45.598;5.214;2023-06-22T15:15:01;18.50;99.90
15578;DHT22;17667;45.598;5.214;2023-06-22T15:17:51;18.40;99.90
15578;DHT22;17667;45.598;5.214;2023-06-22T15:20:41;18.30;99.90
15578;DHT22;17667;45.598;5.214;2023-06-22T15:23:34;18.40;99.90
15578;DHT22;17667;45.598;5.214;2023-06-22T15:26:24;18.30;99.90
15578;DHT22;17667;45.598;5.214;2023-06-22T15:29:14;18.30;99.90
15578;DHT22;17667;45.598;5.214;2023-06-22T15:32:05;18.40;99.90
15578;DHT22;17667;45.598;5.214;2023-06-22T15:34:55;18.40;99.90
15578;DHT22;17667;45.598;5.214;2023-06-22T15:37:45;18.40;99.90
15578;DHT22;17667;45.598;5.214;2023-06-22T15:40:38;18.40;99.90
15578;DHT22;17667;45.598;5.214;2023-06-22T15:43:28;18.40;99.90
15578;DHT22;17667;45.598;5.214;2023-06-22T15:46:18;18.30;99.90
15578;DHT22;17667;45.598;5.214;2023-06-22T15:49:08;18.30;99.90
15578;DHT22;17667;45.598;5.214;2023-06-22T15:51:58;18.30;99.90
15578;DHT22;17667;45.598;5.214;2023-06-22T15:54:49;18.30;99.90
15578;DHT22;17667;45.598;5.214;2023-06-22T15:57:43;18.40;99.90
15578;DHT22;17667;45.598;5.214;2023-06-22T16:00:34;18.50;99.90
15578;DHT22;17667;45.598;5.214;2023-06-22T16:03:24;18.70;99.90
15578;DHT22;17667;45.598;5.214;2023-06-22T16:06:16;18.80;99.90
15578;DHT22;17667;45.598;5.214;2023-06-22T16:09:06;19.20;99.90
15578;DHT22;17667;45.598;5.214;2023-06-22T16:11:56;19.40;99.90
15578;DHT22;17667;45.598;5.214;2023-06-22T16:14:50;19.80;99.90
15578;DHT22;17667;45.598;5.214;2023-06-22T16:17:40;20.50;99.90
15578;DHT22;17667;45.598;5.214;2023-06-22T16:20:29;21.30;99.90
15578;DHT22;17667;45.598;5.214;2023-06-22T16:23:19;21.60;99.90
15578;DHT22;17667;45.598;5.214;2023-06-22T16:26:09;21.80;99.90
15578;DHT22;17667;45.598;5.214;2023-06-22T16:28:59;21.90;99.90
15578;DHT22;17667;45.598;5.214;2023-06-22T16:31:52;21.70;99.90
15578;DHT22;17667;45.598;5.214;2023-06-22T16:34:42;21.40;99.90
15578;DHT22;17667;45.598;5.214;2023-06-22T16:37:32;21.30;99.90
15578;DHT22;17667;45.598;5.214;2023-06-22T16:40:22;21.20;99.90
15578;DHT22;17667;45.598;5.214;2023-06-22T16:43:12;21.20;99.90
15578;DHT22;17667;45.598;5.214;2023-06-22T16:46:02;21.10;99.90
15578;DHT22;17667;45.598;5.214;2023-06-22T16:48:55;21.60;99.90
15578;DHT22;17667;45.598;5.214;2023-06-22T16:51:45;21.00;99.90
15578;DHT22;17667;45.598;5.214;2023-06-22T16:54:34;21.10;99.90
15578;DHT22;17667;45.598;5.214;2023-06-22T16:57:25;21.20;99.90
15578;DHT22;17667;45.598;5.214;2023-06-22T17:00:16;21.20;99.90
15578;DHT22;17667;45.598;5.214;2023-06-22T17:03:08;21.20;99.90
15578;DHT22;17667;45.598;5.214;2023-06-22T17:06:03;21.10;99.90
15578;DHT22;17667;45.598;5.214;2023-06-22T17:08:55;21.00;99.90
15578;DHT22;17667;45.598;5.214;2023-06-22T17:11:46;20.90;99.90
15578;DHT22;17667;45.598;5.214;2023-06-22T17:14:39;20.80;99.90
15578;DHT22;17667;45.598;5.214;2023-06-22T17:17:31;20.60;99.90
15578;DHT22;17667;45.598;5.214;2023-06-22T17:20:23;20.50;99.90
15578;DHT22;17667;45.598;5.214;2023-06-22T17:23:15;20.30;99.90
15578;DHT22;17667;45.598;5.214;2023-06-22T17:26:06;20.20;99.90
15578;DHT22;17667;45.598;5.214;2023-06-22T17:28:56;20.10;99.90
15578;DHT22;17667;45.598;5.214;2023-06-22T17:31:48;19.90;99.90
15578;DHT22;17667;45.598;5.214;2023-06-22T17:34:38;19.90;99.90
15578;DHT22;17667;45.598;5.214;2023-06-22T17:37:32;19.90;99.90
15578;DHT22;17667;45.598;5.214;2023-06-22T17:40:26;19.90;99.90
15578;DHT22;17667;45.598;5.214;2023-06-22T17:43:19;19.90;99.90
15578;DHT22;17667;45.598;5.214;2023-06-22T17:46:09;19.90;99.90
15578;DHT22;17667;45.598;5.214;2023-06-22T17:48:59;19.80;99.90
15578;DHT22;17667;45.598;5.214;2023-06-22T17:51:52;19.90;99.90
15578;DHT22;17667;45.598;5.214;2023-06-22T17:54:43;19.90;99.90
15578;DHT22;17667;45.598;5.214;2023-06-22T17:57:39;19.90;99.90
15578;DHT22;17667;45.598;5.214;2023-06-22T18:00:33;19.90;99.90